sensor_id;sensor_type;location;lat;lon;timestamp;P1;durP1;ratioP1;P2;durP2;ratioP2
22632;SDS011;11483;55.828;37.488;2023-04-03T00:00:30;16.55;;;8.63;;
22632;SDS011;11483;55.828;37.488;2023-04-03T00:02:56;20.92;;;9.50;;
22632;SDS011;11483;55.828;37.488;2023-04-03T00:05:22;20.15;;;9.32;;
22632;SDS011;11483;55.828;37.488;2023-04-03T00:07:48;21.42;;;10.48;;
22632;SDS011;11483;55.828;37.488;2023-04-03T00:10:15;21.40;;;10.50;;
22632;SDS011;11483;55.828;37.488;2023-04-03T00:12:41;22.30;;;10.25;;
22632;SDS011;11483;55.828;37.488;2023-04-03T00:15:07;29.95;;;10.70;;
22632;SDS011;11483;55.828;37.488;2023-04-03T00:17:34;18.60;;;9.55;;
22632;SDS011;11483;55.828;37.488;2023-04-03T00:20:00;20.17;;;10.23;;
22632;SDS011;11483;55.828;37.488;2023-04-03T00:22:26;19.67;;;9.30;;
22632;SDS011;11483;55.828;37.488;2023-04-03T00:24:53;20.98;;;9.57;;
22632;SDS011;11483;55.828;37.488;2023-04-03T00:27:20;19.75;;;9.77;;
22632;SDS011;11483;55.828;37.488;2023-04-03T00:29:46;26.83;;;10.88;;
22632;SDS011;11483;55.828;37.488;2023-04-03T00:32:12;18.60;;;9.30;;
22632;SDS011;11483;55.828;37.488;2023-04-03T00:34:38;23.08;;;10.43;;
22632;SDS011;11483;55.828;37.488;2023-04-03T00:37:04;22.25;;;10.27;;
22632;SDS011;11483;55.828;37.488;2023-04-03T00:39:29;17.90;;;9.43;;
22632;SDS011;11483;55.828;37.488;2023-04-03T00:41:56;20.13;;;9.63;;
22632;SDS011;11483;55.828;37.488;2023-04-03T00:45:21;20.48;;;9.45;;
22632;SDS011;11483;55.828;37.488;2023-04-03T00:47:10;21.48;;;9.30;;
22632;SDS011;11483;55.828;37.488;2023-04-03T00:49:38;19.92;;;10.13;;
22632;SDS011;11483;55.828;37.488;2023-04-03T00:52:05;21.70;;;10.30;;
22632;SDS011;11483;55.828;37.488;2023-04-03T00:54:34;28.40;;;12.63;;
22632;SDS011;11483;55.828;37.488;2023-04-03T00:57:02;24.80;;;10.73;;
22632;SDS011;11483;55.828;37.488;2023-04-03T00:59:31;31.67;;;13.27;;
22632;SDS011;11483;55.828;37.488;2023-04-03T01:02:00;28.98;;;10.88;;
22632;SDS011;11483;55.828;37.488;2023-04-03T01:07:10;33.17;;;13.25;;
22632;SDS011;11483;55.828;37.488;2023-04-03T01:09:39;36.90;;;15.30;;
22632;SDS011;11483;55.828;37.488;2023-04-03T01:12:19;37.97;;;13.25;;
22632;SDS011;11483;55.828;37.488;2023-04-03T01:15:29;30.67;;;14.07;;
22632;SDS011;11483;55.828;37.488;2023-04-03T01:17:48;33.70;;;13.65;;
22632;SDS011;11483;55.828;37.488;2023-04-03T01:25:37;29.88;;;13.43;;
22632;SDS011;11483;55.828;37.488;2023-04-03T01:28:18;28.27;;;13.20;;
22632;SDS011;11483;55.828;37.488;2023-04-03T01:33:30;46.47;;;15.65;;
22632;SDS011;11483;55.828;37.488;2023-04-03T01:35:56;37.55;;;13.18;;
22632;SDS011;11483;55.828;37.488;2023-04-03T01:38:22;31.13;;;14.13;;
22632;SDS011;11483;55.828;37.488;2023-04-03T01:40:48;27.55;;;12.85;;
22632;SDS011;11483;55.828;37.488;2023-04-03T01:43:14;40.83;;;15.38;;
22632;SDS011;11483;55.828;37.488;2023-04-03T01:45:40;35.17;;;14.38;;
22632;SDS011;11483;55.828;37.488;2023-04-03T01:48:06;35.25;;;13.90;;
22632;SDS011;11483;55.828;37.488;2023-04-03T01:50:31;25.23;;;13.23;;
22632;SDS011;11483;55.828;37.488;2023-04-03T01:52:57;26.67;;;13.35;;
22632;SDS011;11483;55.828;37.488;2023-04-03T01:55:23;32.08;;;13.48;;
22632;SDS011;11483;55.828;37.488;2023-04-03T01:57:49;30.65;;;12.82;;
22632;SDS011;11483;55.828;37.488;2023-04-03T02:00:15;34.58;;;11.95;;
22632;SDS011;11483;55.828;37.488;2023-04-03T02:02:41;26.98;;;12.40;;
22632;SDS011;11483;55.828;37.488;2023-04-03T02:05:07;33.13;;;11.75;;
22632;SDS011;11483;55.828;37.488;2023-04-03T02:07:33;28.63;;;12.77;;
22632;SDS011;11483;55.828;37.488;2023-04-03T02:09:59;26.13;;;12.68;;
22632;SDS011;11483;55.828;37.488;2023-04-03T02:12:25;24.20;;;12.00;;
22632;SDS011;11483;55.828;37.488;2023-04-03T02:14:51;21.80;;;10.82;;
22632;SDS011;11483;55.828;37.488;2023-04-03T02:17:16;26.65;;;10.13;;
22632;SDS011;11483;55.828;37.488;2023-04-03T02:19:42;21.33;;;10.48;;
22632;SDS011;11483;55.828;37.488;2023-04-03T02:22:09;20.63;;;9.95;;
22632;SDS011;11483;55.828;37.488;2023-04-03T02:24:35;19.10;;;9.45;;
22632;SDS011;11483;55.828;37.488;2023-04-03T02:27:01;23.75;;;9.85;;
22632;SDS011;11483;55.828;37.488;2023-04-03T02:29:27;21.65;;;9.80;;
22632;SDS011;11483;55.828;37.488;2023-04-03T02:31:53;15.18;;;8.98;;
22632;SDS011;11483;55.828;37.488;2023-04-03T02:34:18;21.98;;;8.75;;
22632;SDS011;11483;55.828;37.488;2023-04-03T02:36:44;22.65;;;9.32;;
22632;SDS011;11483;55.828;37.488;2023-04-03T02:39:10;20.88;;;9.85;;
22632;SDS011;11483;55.828;37.488;2023-04-03T02:41:36;20.92;;;9.13;;
22632;SDS011;11483;55.828;37.488;2023-04-03T02:44:03;22.27;;;9.18;;
22632;SDS011;11483;55.828;37.488;2023-04-03T02:46:31;19.48;;;9.63;;
22632;SDS011;11483;55.828;37.488;2023-04-03T02:48:57;26.95;;;10.15;;
22632;SDS011;11483;55.828;37.488;2023-04-03T02:51:23;18.88;;;8.95;;
22632;SDS011;11483;55.828;37.488;2023-04-03T02:53:49;25.00;;;11.68;;
22632;SDS011;11483;55.828;37.488;2023-04-03T02:56:16;22.75;;;10.02;;
22632;SDS011;11483;55.828;37.488;2023-04-03T02:58:43;20.02;;;9.65;;
22632;SDS011;11483;55.828;37.488;2023-04-03T03:01:09;26.13;;;9.27;;
22632;SDS011;11483;55.828;37.488;2023-04-03T03:03:36;33.28;;;10.50;;
22632;SDS011;11483;55.828;37.488;2023-04-03T03:06:02;18.15;;;9.57;;
22632;SDS011;11483;55.828;37.488;2023-04-03T03:08:36;27.35;;;9.85;;
22632;SDS011;11483;55.828;37.488;2023-04-03T03:11:03;21.90;;;9.85;;
22632;SDS011;11483;55.828;37.488;2023-04-03T03:13:29;22.90;;;10.43;;
22632;SDS011;11483;55.828;37.488;2023-04-03T03:15:55;20.23;;;9.93;;
22632;SDS011;11483;55.828;37.488;2023-04-03T03:18:22;31.23;;;10.07;;
22632;SDS011;11483;55.828;37.488;2023-04-03T03:20:55;21.67;;;9.80;;
22632;SDS011;11483;55.828;37.488;2023-04-03T03:23:22;26.92;;;10.50;;
22632;SDS011;11483;55.828;37.488;2023-04-03T03:25:53;21.30;;;9.88;;
22632;SDS011;11483;55.828;37.488;2023-04-03T03:28:33;18.35;;;9.93;;
22632;SDS011;11483;55.828;37.488;2023-04-03T03:31:01;25.58;;;9.95;;
22632;SDS011;11483;55.828;37.488;2023-04-03T03:33:27;20.98;;;10.07;;
22632;SDS011;11483;55.828;37.488;2023-04-03T03:35:53;23.10;;;10.13;;
22632;SDS011;11483;55.828;37.488;2023-04-03T03:38:19;21.92;;;10.70;;
22632;SDS011;11483;55.828;37.488;2023-04-03T03:40:49;33.55;;;10.88;;
22632;SDS011;11483;55.828;37.488;2023-04-03T03:43:16;24.48;;;11.43;;
22632;SDS011;11483;55.828;37.488;2023-04-03T03:45:43;31.75;;;11.38;;
22632;SDS011;11483;55.828;37.488;2023-04-03T03:48:09;27.67;;;12.02;;
22632;SDS011;11483;55.828;37.488;2023-04-03T03:50:35;26.48;;;11.75;;
22632;SDS011;11483;55.828;37.488;2023-04-03T03:53:01;25.58;;;11.20;;
22632;SDS011;11483;55.828;37.488;2023-04-03T03:55:27;34.92;;;11.98;;
22632;SDS011;11483;55.828;37.488;2023-04-03T03:57:53;36.65;;;11.77;;
22632;SDS011;11483;55.828;37.488;2023-04-03T04:00:19;25.45;;;11.40;;
22632;SDS011;11483;55.828;37.488;2023-04-03T04:02:45;27.50;;;11.07;;
22632;SDS011;11483;55.828;37.488;2023-04-03T04:05:11;25.55;;;10.63;;
22632;SDS011;11483;55.828;37.488;2023-04-03T04:07:37;26.92;;;11.45;;
22632;SDS011;11483;55.828;37.488;2023-04-03T04:10:03;24.98;;;10.65;;
22632;SDS011;11483;55.828;37.488;2023-04-03T04:12:30;37.13;;;11.55;;
22632;SDS011;11483;55.828;37.488;2023-04-03T04:14:56;30.80;;;11.82;;
22632;SDS011;11483;55.828;37.488;2023-04-03T04:17:21;28.60;;;11.50;;
22632;SDS011;11483;55.828;37.488;2023-04-03T04:19:47;28.20;;;11.00;;
22632;SDS011;11483;55.828;37.488;2023-04-03T04:22:13;26.58;;;11.15;;
22632;SDS011;11483;55.828;37.488;2023-04-03T04:24:39;25.27;;;12.23;;
22632;SDS011;11483;55.828;37.488;2023-04-03T04:27:05;36.17;;;12.52;;
22632;SDS011;11483;55.828;37.488;2023-04-03T04:29:30;27.65;;;12.82;;
22632;SDS011;11483;55.828;37.488;2023-04-03T04:32:01;27.60;;;11.55;;
22632;SDS011;11483;55.828;37.488;2023-04-03T04:34:27;38.38;;;12.85;;
22632;SDS011;11483;55.828;37.488;2023-04-03T04:36:53;36.72;;;12.38;;
22632;SDS011;11483;55.828;37.488;2023-04-03T04:39:19;32.22;;;12.68;;
22632;SDS011;11483;55.828;37.488;2023-04-03T04:41:45;28.33;;;11.65;;
22632;SDS011;11483;55.828;37.488;2023-04-03T04:44:11;32.47;;;12.93;;
22632;SDS011;11483;55.828;37.488;2023-04-03T04:46:37;23.10;;;12.00;;
22632;SDS011;11483;55.828;37.488;2023-04-03T04:49:03;28.02;;;11.88;;
22632;SDS011;11483;55.828;37.488;2023-04-03T04:51:29;29.23;;;12.07;;
22632;SDS011;11483;55.828;37.488;2023-04-03T04:53:55;32.60;;;12.55;;
22632;SDS011;11483;55.828;37.488;2023-04-03T04:56:21;24.52;;;11.75;;
22632;SDS011;11483;55.828;37.488;2023-04-03T04:58:47;26.48;;;11.98;;
22632;SDS011;11483;55.828;37.488;2023-04-03T05:01:12;30.33;;;13.38;;
22632;SDS011;11483;55.828;37.488;2023-04-03T05:03:38;24.42;;;11.75;;
22632;SDS011;11483;55.828;37.488;2023-04-03T05:06:04;36.50;;;14.68;;
22632;SDS011;11483;55.828;37.488;2023-04-03T05:08:30;22.10;;;11.85;;
22632;SDS011;11483;55.828;37.488;2023-04-03T05:10:56;33.13;;;13.13;;
22632;SDS011;11483;55.828;37.488;2023-04-03T05:13:22;29.13;;;12.13;;
22632;SDS011;11483;55.828;37.488;2023-04-03T05:15:48;32.65;;;13.02;;
22632;SDS011;11483;55.828;37.488;2023-04-03T05:18:14;24.58;;;12.82;;
22632;SDS011;11483;55.828;37.488;2023-04-03T05:20:40;45.90;;;13.35;;
22632;SDS011;11483;55.828;37.488;2023-04-03T05:23:06;25.15;;;12.30;;
22632;SDS011;11483;55.828;37.488;2023-04-03T05:25:32;33.67;;;13.70;;
22632;SDS011;11483;55.828;37.488;2023-04-03T05:27:58;32.33;;;12.85;;
22632;SDS011;11483;55.828;37.488;2023-04-03T05:30:24;27.42;;;13.18;;
22632;SDS011;11483;55.828;37.488;2023-04-03T05:32:49;42.35;;;13.73;;
22632;SDS011;11483;55.828;37.488;2023-04-03T05:35:15;34.47;;;13.10;;
22632;SDS011;11483;55.828;37.488;2023-04-03T05:37:41;27.75;;;13.05;;
22632;SDS011;11483;55.828;37.488;2023-04-03T05:40:07;29.85;;;12.93;;
22632;SDS011;11483;55.828;37.488;2023-04-03T05:42:34;21.98;;;11.52;;
22632;SDS011;11483;55.828;37.488;2023-04-03T05:45:00;30.13;;;12.27;;
22632;SDS011;11483;55.828;37.488;2023-04-03T05:47:26;22.08;;;11.15;;
22632;SDS011;11483;55.828;37.488;2023-04-03T05:49:51;21.25;;;11.77;;
22632;SDS011;11483;55.828;37.488;2023-04-03T05:52:21;26.50;;;12.20;;
22632;SDS011;11483;55.828;37.488;2023-04-03T05:54:54;20.92;;;10.80;;
22632;SDS011;11483;55.828;37.488;2023-04-03T05:57:21;30.73;;;12.02;;
22632;SDS011;11483;55.828;37.488;2023-04-03T05:59:47;33.75;;;11.38;;
22632;SDS011;11483;55.828;37.488;2023-04-03T06:02:14;24.67;;;11.95;;
22632;SDS011;11483;55.828;37.488;2023-04-03T06:04:41;23.00;;;12.57;;
22632;SDS011;11483;55.828;37.488;2023-04-03T06:07:10;38.65;;;12.73;;
22632;SDS011;11483;55.828;37.488;2023-04-03T06:09:38;32.40;;;11.82;;
22632;SDS011;11483;55.828;37.488;2023-04-03T06:12:05;36.75;;;11.65;;
22632;SDS011;11483;55.828;37.488;2023-04-03T06:14:31;28.05;;;11.65;;
22632;SDS011;11483;55.828;37.488;2023-04-03T06:16:56;25.33;;;11.18;;
22632;SDS011;11483;55.828;37.488;2023-04-03T06:19:22;38.58;;;12.45;;
22632;SDS011;11483;55.828;37.488;2023-04-03T06:21:48;31.88;;;11.60;;
22632;SDS011;11483;55.828;37.488;2023-04-03T06:24:16;24.10;;;11.07;;
22632;SDS011;11483;55.828;37.488;2023-04-03T06:26:42;37.03;;;12.32;;
22632;SDS011;11483;55.828;37.488;2023-04-03T06:29:08;29.48;;;12.52;;
22632;SDS011;11483;55.828;37.488;2023-04-03T06:31:35;24.63;;;11.40;;
22632;SDS011;11483;55.828;37.488;2023-04-03T06:34:02;32.88;;;12.13;;
22632;SDS011;11483;55.828;37.488;2023-04-03T06:36:28;29.02;;;12.77;;
22632;SDS011;11483;55.828;37.488;2023-04-03T06:38:55;33.20;;;12.98;;
22632;SDS011;11483;55.828;37.488;2023-04-03T06:41:20;27.90;;;11.65;;
22632;SDS011;11483;55.828;37.488;2023-04-03T06:43:47;48.22;;;12.30;;
22632;SDS011;11483;55.828;37.488;2023-04-03T06:46:16;35.15;;;11.95;;
22632;SDS011;11483;55.828;37.488;2023-04-03T06:48:44;35.33;;;11.55;;
22632;SDS011;11483;55.828;37.488;2023-04-03T06:51:17;34.78;;;12.10;;
22632;SDS011;11483;55.828;37.488;2023-04-03T06:53:49;44.08;;;12.70;;
22632;SDS011;11483;55.828;37.488;2023-04-03T06:56:16;25.67;;;10.38;;
22632;SDS011;11483;55.828;37.488;2023-04-03T06:58:43;31.70;;;11.27;;
22632;SDS011;11483;55.828;37.488;2023-04-03T07:01:10;34.80;;;12.05;;
22632;SDS011;11483;55.828;37.488;2023-04-03T07:03:38;26.20;;;12.20;;
22632;SDS011;11483;55.828;37.488;2023-04-03T07:06:05;30.83;;;12.23;;
22632;SDS011;11483;55.828;37.488;2023-04-03T07:08:32;37.40;;;11.38;;
22632;SDS011;11483;55.828;37.488;2023-04-03T07:10:59;41.33;;;11.40;;
22632;SDS011;11483;55.828;37.488;2023-04-03T07:13:25;38.83;;;12.30;;
22632;SDS011;11483;55.828;37.488;2023-04-03T07:15:51;34.40;;;10.70;;
22632;SDS011;11483;55.828;37.488;2023-04-03T07:18:17;27.90;;;11.30;;
22632;SDS011;11483;55.828;37.488;2023-04-03T07:20:43;36.42;;;11.60;;
22632;SDS011;11483;55.828;37.488;2023-04-03T07:23:09;31.20;;;11.88;;
22632;SDS011;11483;55.828;37.488;2023-04-03T07:28:02;37.42;;;11.15;;
22632;SDS011;11483;55.828;37.488;2023-04-03T07:47:29;28.15;;;11.40;;
22632;SDS011;11483;55.828;37.488;2023-04-03T07:49:56;35.17;;;12.75;;
22632;SDS011;11483;55.828;37.488;2023-04-03T07:52:23;26.70;;;11.10;;
22632;SDS011;11483;55.828;37.488;2023-04-03T07:54:49;26.65;;;11.85;;
22632;SDS011;11483;55.828;37.488;2023-04-03T07:57:15;31.40;;;12.23;;
22632;SDS011;11483;55.828;37.488;2023-04-03T07:59:41;36.60;;;11.70;;
22632;SDS011;11483;55.828;37.488;2023-04-03T08:02:11;34.00;;;11.65;;
22632;SDS011;11483;55.828;37.488;2023-04-03T08:04:37;23.85;;;12.02;;
22632;SDS011;11483;55.828;37.488;2023-04-03T08:07:03;42.17;;;11.82;;
22632;SDS011;11483;55.828;37.488;2023-04-03T08:09:30;30.10;;;13.23;;
22632;SDS011;11483;55.828;37.488;2023-04-03T08:11:56;31.85;;;13.65;;
22632;SDS011;11483;55.828;37.488;2023-04-03T08:14:23;38.57;;;14.10;;
22632;SDS011;11483;55.828;37.488;2023-04-03T08:16:49;36.75;;;13.73;;
22632;SDS011;11483;55.828;37.488;2023-04-03T08:19:16;38.42;;;13.43;;
22632;SDS011;11483;55.828;37.488;2023-04-03T08:21:43;34.63;;;13.60;;
22632;SDS011;11483;55.828;37.488;2023-04-03T08:24:10;33.87;;;13.20;;
22632;SDS011;11483;55.828;37.488;2023-04-03T08:26:36;33.78;;;13.10;;
22632;SDS011;11483;55.828;37.488;2023-04-03T08:29:02;41.75;;;13.13;;
22632;SDS011;11483;55.828;37.488;2023-04-03T08:31:28;37.50;;;13.90;;
22632;SDS011;11483;55.828;37.488;2023-04-03T08:33:56;56.03;;;15.10;;
22632;SDS011;11483;55.828;37.488;2023-04-03T08:36:23;41.13;;;12.63;;
22632;SDS011;11483;55.828;37.488;2023-04-03T08:38:52;42.53;;;13.18;;
22632;SDS011;11483;55.828;37.488;2023-04-03T08:41:20;37.70;;;13.00;;
22632;SDS011;11483;55.828;37.488;2023-04-03T08:44:02;39.17;;;12.45;;
22632;SDS011;11483;55.828;37.488;2023-04-03T08:49:44;39.15;;;14.23;;
22632;SDS011;11483;55.828;37.488;2023-04-03T08:52:23;45.60;;;13.73;;
22632;SDS011;11483;55.828;37.488;2023-04-03T08:55:20;42.63;;;13.75;;
22632;SDS011;11483;55.828;37.488;2023-04-03T08:57:48;41.55;;;14.70;;
22632;SDS011;11483;55.828;37.488;2023-04-03T09:02:47;43.22;;;16.67;;
22632;SDS011;11483;55.828;37.488;2023-04-03T09:05:39;54.70;;;16.52;;
22632;SDS011;11483;55.828;37.488;2023-04-03T09:08:14;56.25;;;15.80;;
22632;SDS011;11483;55.828;37.488;2023-04-03T09:21:43;42.47;;;15.20;;
22632;SDS011;11483;55.828;37.488;2023-04-03T09:24:10;42.05;;;15.38;;
22632;SDS011;11483;55.828;37.488;2023-04-03T09:26:46;43.73;;;14.17;;
22632;SDS011;11483;55.828;37.488;2023-04-03T09:29:18;31.25;;;14.20;;
22632;SDS011;11483;55.828;37.488;2023-04-03T09:31:58;35.25;;;14.32;;
22632;SDS011;11483;55.828;37.488;2023-04-03T09:34:27;34.80;;;14.52;;
22632;SDS011;11483;55.828;37.488;2023-04-03T09:36:54;41.97;;;15.32;;
22632;SDS011;11483;55.828;37.488;2023-04-03T09:39:23;42.13;;;15.13;;
22632;SDS011;11483;55.828;37.488;2023-04-03T09:42:35;45.40;;;15.65;;
22632;SDS011;11483;55.828;37.488;2023-04-03T09:44:48;33.60;;;13.95;;
22632;SDS011;11483;55.828;37.488;2023-04-03T09:50:17;31.58;;;13.32;;
22632;SDS011;11483;55.828;37.488;2023-04-03T09:52:47;42.38;;;13.65;;
22632;SDS011;11483;55.828;37.488;2023-04-03T09:55:20;36.60;;;12.98;;
22632;SDS011;11483;55.828;37.488;2023-04-03T09:57:58;42.33;;;13.20;;
22632;SDS011;11483;55.828;37.488;2023-04-03T10:00:37;36.22;;;13.60;;
22632;SDS011;11483;55.828;37.488;2023-04-03T10:03:05;41.17;;;13.57;;
22632;SDS011;11483;55.828;37.488;2023-04-03T10:05:48;44.22;;;13.38;;
22632;SDS011;11483;55.828;37.488;2023-04-03T10:10:43;34.10;;;13.90;;
22632;SDS011;11483;55.828;37.488;2023-04-03T10:13:14;39.28;;;13.98;;
22632;SDS011;11483;55.828;37.488;2023-04-03T10:18:44;41.70;;;14.20;;
22632;SDS011;11483;55.828;37.488;2023-04-03T10:24:32;34.63;;;12.70;;
22632;SDS011;11483;55.828;37.488;2023-04-03T10:27:11;32.45;;;12.90;;
22632;SDS011;11483;55.828;37.488;2023-04-03T10:30:17;43.80;;;13.57;;
22632;SDS011;11483;55.828;37.488;2023-04-03T10:36:01;36.72;;;13.25;;
22632;SDS011;11483;55.828;37.488;2023-04-03T10:46:53;47.63;;;14.55;;
22632;SDS011;11483;55.828;37.488;2023-04-03T10:49:56;38.40;;;14.55;;
22632;SDS011;11483;55.828;37.488;2023-04-03T10:57:52;35.47;;;14.27;;
22632;SDS011;11483;55.828;37.488;2023-04-03T11:00:42;49.78;;;15.93;;
22632;SDS011;11483;55.828;37.488;2023-04-03T11:03:15;44.03;;;14.10;;
22632;SDS011;11483;55.828;37.488;2023-04-03T11:06:12;35.83;;;13.75;;
22632;SDS011;11483;55.828;37.488;2023-04-03T11:11:13;31.40;;;12.93;;
22632;SDS011;11483;55.828;37.488;2023-04-03T11:14:02;38.47;;;12.75;;
22632;SDS011;11483;55.828;37.488;2023-04-03T11:16:48;42.67;;;12.93;;
22632;SDS011;11483;55.828;37.488;2023-04-03T11:19:36;34.30;;;12.48;;
22632;SDS011;11483;55.828;37.488;2023-04-03T11:27:30;39.30;;;11.67;;
22632;SDS011;11483;55.828;37.488;2023-04-03T11:30:06;28.08;;;10.27;;
22632;SDS011;11483;55.828;37.488;2023-04-03T11:35:59;28.25;;;9.50;;
22632;SDS011;11483;55.828;37.488;2023-04-03T11:38:48;30.52;;;9.73;;
22632;SDS011;11483;55.828;37.488;2023-04-03T11:41:17;30.02;;;9.38;;
22632;SDS011;11483;55.828;37.488;2023-04-03T11:44:02;39.70;;;10.60;;
22632;SDS011;11483;55.828;37.488;2023-04-03T12:05:54;35.60;;;10.32;;
22632;SDS011;11483;55.828;37.488;2023-04-03T12:16:18;36.42;;;10.25;;
22632;SDS011;11483;55.828;37.488;2023-04-03T12:40:31;32.58;;;10.18;;
22632;SDS011;11483;55.828;37.488;2023-04-03T12:48:46;28.02;;;10.38;;
22632;SDS011;11483;55.828;37.488;2023-04-03T12:54:15;25.05;;;10.68;;
22632;SDS011;11483;55.828;37.488;2023-04-03T12:56:45;35.03;;;11.82;;
22632;SDS011;11483;55.828;37.488;2023-04-03T12:59:21;28.15;;;10.63;;
22632;SDS011;11483;55.828;37.488;2023-04-03T13:01:55;32.25;;;10.55;;
22632;SDS011;11483;55.828;37.488;2023-04-03T13:04:23;34.78;;;9.95;;
22632;SDS011;11483;55.828;37.488;2023-04-03T13:06:50;21.30;;;10.00;;
22632;SDS011;11483;55.828;37.488;2023-04-03T13:09:24;26.30;;;9.85;;
22632;SDS011;11483;55.828;37.488;2023-04-03T13:14:40;32.92;;;9.55;;
22632;SDS011;11483;55.828;37.488;2023-04-03T13:17:17;26.52;;;10.15;;
22632;SDS011;11483;55.828;37.488;2023-04-03T13:19:43;27.13;;;8.77;;
22632;SDS011;11483;55.828;37.488;2023-04-03T13:24:58;20.75;;;7.38;;
22632;SDS011;11483;55.828;37.488;2023-04-03T13:27:26;23.00;;;8.55;;
22632;SDS011;11483;55.828;37.488;2023-04-03T13:29:56;21.65;;;6.75;;
22632;SDS011;11483;55.828;37.488;2023-04-03T13:32:24;35.00;;;7.97;;
22632;SDS011;11483;55.828;37.488;2023-04-03T13:34:53;16.35;;;5.93;;
22632;SDS011;11483;55.828;37.488;2023-04-03T13:37:23;26.95;;;6.15;;
22632;SDS011;11483;55.828;37.488;2023-04-03T13:42:35;23.80;;;6.47;;
22632;SDS011;11483;55.828;37.488;2023-04-03T13:45:10;16.98;;;7.38;;
22632;SDS011;11483;55.828;37.488;2023-04-03T13:48:38;18.13;;;7.32;;
22632;SDS011;11483;55.828;37.488;2023-04-03T13:53:32;23.20;;;7.28;;
22632;SDS011;11483;55.828;37.488;2023-04-03T13:56:05;16.75;;;6.70;;
22632;SDS011;11483;55.828;37.488;2023-04-03T13:58:33;18.77;;;6.95;;
22632;SDS011;11483;55.828;37.488;2023-04-03T14:06:22;26.67;;;7.88;;
22632;SDS011;11483;55.828;37.488;2023-04-03T14:08:48;26.60;;;7.70;;
22632;SDS011;11483;55.828;37.488;2023-04-03T14:11:16;24.77;;;7.32;;
22632;SDS011;11483;55.828;37.488;2023-04-03T14:13:48;23.65;;;7.25;;
22632;SDS011;11483;55.828;37.488;2023-04-03T14:16:17;25.90;;;8.50;;
22632;SDS011;11483;55.828;37.488;2023-04-03T14:18:45;17.33;;;7.32;;
22632;SDS011;11483;55.828;37.488;2023-04-03T14:21:14;18.30;;;7.75;;
22632;SDS011;11483;55.828;37.488;2023-04-03T14:23:42;27.73;;;7.10;;
22632;SDS011;11483;55.828;37.488;2023-04-03T14:26:17;22.15;;;8.00;;
22632;SDS011;11483;55.828;37.488;2023-04-03T14:28:49;19.08;;;7.85;;
22632;SDS011;11483;55.828;37.488;2023-04-03T14:31:17;24.98;;;7.60;;
22632;SDS011;11483;55.828;37.488;2023-04-03T14:33:44;23.33;;;8.73;;
22632;SDS011;11483;55.828;37.488;2023-04-03T14:36:20;25.48;;;8.02;;
22632;SDS011;11483;55.828;37.488;2023-04-03T14:38:48;22.50;;;8.82;;
22632;SDS011;11483;55.828;37.488;2023-04-03T14:41:16;18.75;;;8.73;;
22632;SDS011;11483;55.828;37.488;2023-04-03T14:43:44;28.90;;;9.20;;
22632;SDS011;11483;55.828;37.488;2023-04-03T14:48:51;21.30;;;8.02;;
22632;SDS011;11483;55.828;37.488;2023-04-03T14:51:17;25.45;;;8.45;;
22632;SDS011;11483;55.828;37.488;2023-04-03T14:53:43;24.52;;;8.27;;
22632;SDS011;11483;55.828;37.488;2023-04-03T14:56:23;16.73;;;8.05;;
22632;SDS011;11483;55.828;37.488;2023-04-03T14:58:56;18.75;;;9.02;;
22632;SDS011;11483;55.828;37.488;2023-04-03T15:01:26;22.98;;;8.68;;
22632;SDS011;11483;55.828;37.488;2023-04-03T15:03:53;26.17;;;8.63;;
22632;SDS011;11483;55.828;37.488;2023-04-03T15:06:19;16.08;;;8.27;;
22632;SDS011;11483;55.828;37.488;2023-04-03T15:08:46;16.00;;;8.35;;
22632;SDS011;11483;55.828;37.488;2023-04-03T15:11:13;21.55;;;8.88;;
22632;SDS011;11483;55.828;37.488;2023-04-03T15:13:39;24.65;;;8.50;;
22632;SDS011;11483;55.828;37.488;2023-04-03T15:16:10;19.02;;;8.68;;
22632;SDS011;11483;55.828;37.488;2023-04-03T15:18:42;19.80;;;9.05;;
22632;SDS011;11483;55.828;37.488;2023-04-03T15:21:09;19.15;;;8.75;;
22632;SDS011;11483;55.828;37.488;2023-04-03T15:23:35;25.80;;;9.27;;
22632;SDS011;11483;55.828;37.488;2023-04-03T15:26:01;35.85;;;10.70;;
22632;SDS011;11483;55.828;37.488;2023-04-03T15:28:29;23.17;;;10.65;;
22632;SDS011;11483;55.828;37.488;2023-04-03T15:30:59;33.78;;;11.70;;
22632;SDS011;11483;55.828;37.488;2023-04-03T15:33:25;26.42;;;11.30;;
22632;SDS011;11483;55.828;37.488;2023-04-03T15:35:52;24.55;;;10.30;;
22632;SDS011;11483;55.828;37.488;2023-04-03T15:38:18;30.40;;;10.50;;
22632;SDS011;11483;55.828;37.488;2023-04-03T15:40:44;26.58;;;10.48;;
22632;SDS011;11483;55.828;37.488;2023-04-03T15:43:12;33.42;;;11.32;;
22632;SDS011;11483;55.828;37.488;2023-04-03T15:45:38;35.55;;;10.80;;
22632;SDS011;11483;55.828;37.488;2023-04-03T15:48:05;34.72;;;10.60;;
22632;SDS011;11483;55.828;37.488;2023-04-03T15:50:32;24.23;;;10.82;;
22632;SDS011;11483;55.828;37.488;2023-04-03T15:52:59;37.03;;;10.20;;
22632;SDS011;11483;55.828;37.488;2023-04-03T15:55:27;28.30;;;10.43;;
22632;SDS011;11483;55.828;37.488;2023-04-03T15:57:54;31.90;;;10.18;;
22632;SDS011;11483;55.828;37.488;2023-04-03T16:00:21;32.08;;;11.07;;
22632;SDS011;11483;55.828;37.488;2023-04-03T16:02:48;21.63;;;10.90;;
22632;SDS011;11483;55.828;37.488;2023-04-03T16:05:17;30.05;;;11.18;;
22632;SDS011;11483;55.828;37.488;2023-04-03T16:07:44;28.17;;;11.05;;
22632;SDS011;11483;55.828;37.488;2023-04-03T16:10:10;33.03;;;11.30;;
22632;SDS011;11483;55.828;37.488;2023-04-03T16:12:37;33.55;;;11.48;;
22632;SDS011;11483;55.828;37.488;2023-04-03T16:15:04;27.83;;;11.90;;
22632;SDS011;11483;55.828;37.488;2023-04-03T16:17:31;40.00;;;12.30;;
22632;SDS011;11483;55.828;37.488;2023-04-03T16:19:57;23.88;;;10.82;;
22632;SDS011;11483;55.828;37.488;2023-04-03T16:22:25;30.42;;;11.02;;
22632;SDS011;11483;55.828;37.488;2023-04-03T16:24:52;33.42;;;11.30;;
22632;SDS011;11483;55.828;37.488;2023-04-03T16:27:19;26.25;;;11.15;;
22632;SDS011;11483;55.828;37.488;2023-04-03T16:29:46;30.95;;;11.73;;
22632;SDS011;11483;55.828;37.488;2023-04-03T16:32:11;21.70;;;11.45;;
22632;SDS011;11483;55.828;37.488;2023-04-03T16:34:39;23.63;;;11.98;;
22632;SDS011;11483;55.828;37.488;2023-04-03T16:37:05;34.53;;;11.63;;
22632;SDS011;11483;55.828;37.488;2023-04-03T16:39:33;31.05;;;11.95;;
22632;SDS011;11483;55.828;37.488;2023-04-03T16:42:00;33.90;;;12.40;;
22632;SDS011;11483;55.828;37.488;2023-04-03T16:44:26;37.65;;;12.90;;
22632;SDS011;11483;55.828;37.488;2023-04-03T16:46:52;22.20;;;11.75;;
22632;SDS011;11483;55.828;37.488;2023-04-03T16:49:18;27.25;;;12.32;;
22632;SDS011;11483;55.828;37.488;2023-04-03T16:51:44;39.22;;;12.73;;
22632;SDS011;11483;55.828;37.488;2023-04-03T16:54:10;26.38;;;13.05;;
22632;SDS011;11483;55.828;37.488;2023-04-03T16:56:38;28.13;;;12.63;;
22632;SDS011;11483;55.828;37.488;2023-04-03T16:59:04;27.05;;;13.00;;
22632;SDS011;11483;55.828;37.488;2023-04-03T17:01:30;29.20;;;13.30;;
22632;SDS011;11483;55.828;37.488;2023-04-03T17:03:56;28.17;;;12.77;;